Leland, OR

9:09 PM PST on February 25, 2017 (GMT -0800)
Cathedral Hills | | Change Station
Active Advisory: Winter Weather Advisory

Elev 1257 ft 42.41 °N, 123.32 °W | Updated 19 seconds ago

Clear
Clear
36.6 °F
Feels Like 36.6 °F
N
0.0
Wind Variable Wind from NW
Gusts 0.0 mph

Today
High -- | Low -- °F
--% Chance of Precip.
Yesterday
High -- | Low -- °F
Precip. -- in
Pressure 30.09 in
Visibility 10.0 miles
Clouds Clear
Dew Point 32.8 °F
Humidity 86%
Rainfall 0.00 in
Snow Depth Not available.
6:55 AM 5:58 PM
Waning Crescent, 0% visible
METAR KMFR 260453Z 17006KT 10SM CLR 03/00 A3006 RMK AO2 SLP188 T00330000
Pressure 30.09 in
Visibility 10.0 miles
Clouds Clear
Dew Point 32.8 °F
Humidity 86%
Rainfall 0.00 in
Snow Depth Not available.
6:55 AM 5:58 PM
Waning Crescent, 0% visible
METAR KMFR 260453Z 17006KT 10SM CLR 03/00 A3006 RMK AO2 SLP188 T00330000

Get Your Daily Forecast Email!

Thanks for signing up!

Be on the lookout for a verification email in your inbox.

You'll start receiving the daily forecast at 8 AM.

×

10-Day Weather Forecast

Almanac

Astronomy

Feb. 25, 2017 Rise Set
Actual Time
Civil Twilight
Nautical Twilight
Astronomical Twilight
Moon
Length of Visible Light
Length of Day
Tomorrow will be .
, % of the Moon is Illuminated

Today's Extremes

State Highs State Lows

Community

WunderPhotos

Upload Photos

1,962,540 photos uploaded!

WunderBlog® & News

Nearby

Air Quality

  Air Quality AQ Index Pollutant
Not available.

Snow Depth

Station Depth Elevation

Earthquake Activity

City Distance Mag. Time & Date
Minimum magnitude displayed is 2.5.

Coastal Water Temperatures

Place Temperature

Stations

Nearby Weather Stations

Station Location Temp. Windchill Dew Point Humidity Wind Precip. Elev Updated Type
                   

Watches & Warnings

Winter Weather Advisory
Issued: 2:37 PM PST Feb. 25, 2017 – National Weather Service

... Winter Weather Advisory remains in effect from 7 am Sunday to
4 am PST Monday...

The National Weather Service in Medford has upgraded the Winter
Storm Watch to a Winter Weather Advisory.

* Snow accumulations: 2 to 4 inches. Up to 8 inches possible
above 2500 feet.

* Timing: the highest snowfall rates are expected Sunday
afternoon.

* Advisory locations include: Cave Junction, Selma, Obrien, Wolf
Creek, Highway 199 from Hayes Hill to Obrien, and Interstate 5
at Sexton pass.

* Impacts: any heavier snow showers, even during the afternoon
Sunday, could quickly create slushy conditions on roadways.
Snowfall will reduce visibilities to less than a half mile at
times.

Precautionary/preparedness actions...

* a Winter Weather Advisory for snow means that periods of snow
will cause travel difficulties.

* Slow down and allow extra time to reach your destination.

* Carry tire chains and be prepared for snow covered roads and
limited visibilities.

* See weather.Gov/Medford/cams for latest Road conditions.